Time;durP1;ratioP1;P1;durP2;ratioP2;P2;SDS_P1;SDS_P2;PMS_P1;PMS_P2;Temp;Humidity;BMP_temperature;BMP_pressure;BME280_temperature;BME280_humidity;BME280_pressure;Samples;Min_cycle;Max_cycle;Signal;HPM_P1;HPM_P2
2022/07/18 00:01:52;;;;;;;;;;;16.60;99.90;;;;;;5070350;28;19935;-82
2022/07/18 00:04:18;;;;;;;;;;;16.50;99.90;;;;;;5066808;28;19924;-83
2022/07/18 00:06:44;;;;;;;;;;;16.50;99.90;;;;;;5067413;28;19935;-83
2022/07/18 00:09:09;;;;;;;;;;;16.40;99.90;;;;;;5084727;28;19979;-83
2022/07/18 00:11:35;;;;;;;;;;;16.50;99.90;;;;;;5085249;28;19928;-83
2022/07/18 00:14:03;;;;;;;;;;;16.40;99.90;;;;;;5066653;28;19924;-84
2022/07/18 00:16:34;;;;;;;;;;;16.50;99.90;;;;;;5083216;28;19971;-80
2022/07/18 00:19:02;;;;;;;;;;;16.40;99.90;;;;;;5080909;28;19974;-84
2022/07/18 00:21:28;;;;;;;;;;;16.40;99.90;;;;;;5069736;28;20019;-82
2022/07/18 00:23:53;;;;;;;;;;;16.40;99.90;;;;;;5078005;28;20003;-83
2022/07/18 00:26:21;;;;;;;;;;;16.40;99.90;;;;;;5071656;28;19981;-81
2022/07/18 00:28:48;;;;;;;;;;;16.40;99.90;;;;;;5070057;28;20151;-81
2022/07/18 00:31:14;;;;;;;;;;;16.40;99.90;;;;;;5075337;28;19924;-82
2022/07/18 00:33:41;;;;;;;;;;;16.40;99.90;;;;;;5054297;28;19950;-81
2022/07/18 00:36:12;;;;;;;;;;;16.30;99.90;;;;;;5061683;28;19932;-81
2022/07/18 00:38:38;;;;;;;;;;;16.30;99.90;;;;;;5079361;28;19929;-81
2022/07/18 00:41:04;;;;;;;;;;;16.50;99.90;;;;;;5092150;28;19924;-82
2022/07/18 00:43:32;;;;;;;;;;;16.30;99.90;;;;;;5043531;28;20004;-82
2022/07/18 00:45:57;;;;;;;;;;;16.30;99.90;;;;;;5081027;28;19930;-80
2022/07/18 00:48:30;;;;;;;;;;;16.20;99.90;;;;;;5073871;28;19931;-80
2022/07/18 00:50:55;;;;;;;;;;;16.30;99.90;;;;;;5076979;28;20324;-80
2022/07/18 00:53:23;;;;;;;;;;;16.30;99.90;;;;;;5073373;28;19924;-80
2022/07/18 00:55:49;;;;;;;;;;;16.30;99.90;;;;;;5087603;28;20014;-80
2022/07/18 00:58:15;;;;;;;;;;;16.30;99.90;;;;;;5063137;28;20020;-80
2022/07/18 01:03:27;;;;;;;;;;;16.30;99.90;;;;;;5053841;28;19928;-81
2022/07/18 01:05:53;;;;;;;;;;;16.20;99.90;;;;;;5082052;28;20015;-80
2022/07/18 01:08:20;;;;;;;;;;;16.20;99.90;;;;;;5086488;28;20009;-80
2022/07/18 01:10:46;;;;;;;;;;;16.20;99.90;;;;;;5081610;28;20355;-81
2022/07/18 01:13:12;;;;;;;;;;;16.20;99.90;;;;;;5084517;28;19924;-81
2022/07/18 01:15:37;;;;;;;;;;;16.20;99.90;;;;;;5064974;28;20291;-82
2022/07/18 01:18:04;;;;;;;;;;;16.20;99.90;;;;;;5072736;28;19934;-81
2022/07/18 01:20:30;;;;;;;;;;;16.10;99.90;;;;;;5077658;28;19928;-80
2022/07/18 01:22:56;;;;;;;;;;;16.10;99.90;;;;;;5071867;28;19975;-80
2022/07/18 01:25:22;;;;;;;;;;;16.10;99.90;;;;;;5071520;28;19924;-79
2022/07/18 01:27:48;;;;;;;;;;;16.10;99.90;;;;;;5068052;28;19931;-80
2022/07/18 01:30:15;;;;;;;;;;;16.10;99.90;;;;;;5071606;28;19924;-81
2022/07/18 01:32:43;;;;;;;;;;;16.10;99.90;;;;;;5086474;28;19924;-81
2022/07/18 01:35:09;;;;;;;;;;;16.00;99.90;;;;;;5075120;28;20487;-80
2022/07/18 01:37:34;;;;;;;;;;;16.00;99.90;;;;;;5063254;28;19924;-81
2022/07/18 01:40:00;;;;;;;;;;;16.00;99.90;;;;;;5091801;28;20337;-80
2022/07/18 01:42:26;;;;;;;;;;;16.00;99.90;;;;;;5064975;28;19924;-81
2022/07/18 01:44:52;;;;;;;;;;;16.00;99.90;;;;;;5067102;28;19932;-80
2022/07/18 01:47:18;;;;;;;;;;;16.00;99.90;;;;;;5084839;28;19924;-81
2022/07/18 01:49:45;;;;;;;;;;;15.90;99.90;;;;;;5074684;28;19924;-80
2022/07/18 01:52:11;;;;;;;;;;;15.90;99.90;;;;;;5056178;28;20270;-81
2022/07/18 01:54:37;;;;;;;;;;;15.90;99.90;;;;;;5078839;28;19951;-81
2022/07/18 01:57:03;;;;;;;;;;;15.90;99.90;;;;;;5077329;28;19929;-80
2022/07/18 01:59:29;;;;;;;;;;;15.80;99.90;;;;;;5055346;28;19928;-81
2022/07/18 02:01:55;;;;;;;;;;;15.80;99.90;;;;;;5076924;28;20382;-81
2022/07/18 02:09:46;;;;;;;;;;;15.70;99.90;;;;;;5064187;28;19978;-81
2022/07/18 02:12:12;;;;;;;;;;;15.70;99.90;;;;;;5049018;28;19974;-82
2022/07/18 02:14:38;;;;;;;;;;;15.70;99.90;;;;;;5048768;28;19928;-82
2022/07/18 02:17:04;;;;;;;;;;;15.70;99.90;;;;;;5029334;28;19932;-80
2022/07/18 02:19:35;;;;;;;;;;;15.70;99.90;;;;;;5030784;28;19928;-81
2022/07/18 02:22:07;;;;;;;;;;;15.70;99.90;;;;;;5046430;28;19928;-81
2022/07/18 02:24:46;;;;;;;;;;;15.60;99.90;;;;;;5064155;28;19925;-81
2022/07/18 02:27:12;;;;;;;;;;;15.50;99.90;;;;;;5048861;28;19924;-80
2022/07/18 02:30:06;;;;;;;;;;;15.50;99.90;;;;;;5031646;28;20013;-80
2022/07/18 02:32:43;;;;;;;;;;;15.50;99.90;;;;;;5041950;28;19931;-81
2022/07/18 02:35:24;;;;;;;;;;;14.70;99.90;;;;;;5071943;22;19955;-80
2022/07/18 02:37:50;;;;;;;;;;;15.30;99.90;;;;;;5002949;28;19983;-80
2022/07/18 02:40:16;;;;;;;;;;;15.30;99.90;;;;;;4969819;28;19921;-81
2022/07/18 02:43:12;;;;;;;;;;;15.20;99.90;;;;;;5023388;28;20053;-80
2022/07/18 02:45:48;;;;;;;;;;;15.20;99.90;;;;;;5009402;28;19929;-83
2022/07/18 02:51:55;;;;;;;;;;;15.10;99.90;;;;;;5033397;28;19959;-82
2022/07/18 02:57:36;;;;;;;;;;;14.90;99.90;;;;;;5035730;28;20004;-82
2022/07/18 03:03:42;;;;;;;;;;;14.90;99.90;;;;;;5036923;28;19924;-80
2022/07/18 03:06:17;;;;;;;;;;;14.90;99.90;;;;;;5010687;28;20613;-79
2022/07/18 03:12:05;;;;;;;;;;;14.80;99.90;;;;;;5030650;28;19964;-80
2022/07/18 03:20:38;;;;;;;;;;;15.10;99.90;;;;;;5021363;28;19925;-81
2022/07/18 03:23:16;;;;;;;;;;;14.90;99.90;;;;;;5024722;28;19925;-82
2022/07/18 03:26:20;;;;;;;;;;;14.70;99.90;;;;;;5049479;28;19929;-81
2022/07/18 03:28:45;;;;;;;;;;;14.90;99.90;;;;;;5004635;28;19929;-78
2022/07/18 03:31:14;;;;;;;;;;;14.80;99.90;;;;;;4996382;28;20287;-79
2022/07/18 03:33:40;;;;;;;;;;;14.90;99.90;;;;;;5008418;28;20258;-80
2022/07/18 03:36:06;;;;;;;;;;;14.90;99.90;;;;;;5015207;28;19925;-82
2022/07/18 03:38:32;;;;;;;;;;;15.00;99.90;;;;;;5029036;28;19964;-79
2022/07/18 03:40:58;;;;;;;;;;;15.00;99.90;;;;;;5024180;28;19935;-81
2022/07/18 03:43:27;;;;;;;;;;;15.10;99.90;;;;;;5026449;28;19932;-81
2022/07/18 03:46:00;;;;;;;;;;;15.20;99.90;;;;;;5013630;28;20371;-78
2022/07/18 03:48:46;;;;;;;;;;;15.20;99.90;;;;;;5022608;28;19924;-79
2022/07/18 03:51:12;;;;;;;;;;;15.20;99.90;;;;;;5008083;28;19964;-79
2022/07/18 03:53:38;;;;;;;;;;;15.30;99.90;;;;;;5006610;28;19976;-79
2022/07/18 03:56:04;;;;;;;;;;;15.30;99.90;;;;;;5008219;28;19932;-79
2022/07/18 03:58:31;;;;;;;;;;;15.30;99.90;;;;;;4996612;28;20578;-78
2022/07/18 04:00:57;;;;;;;;;;;15.30;99.90;;;;;;4996484;28;20011;-82
2022/07/18 04:03:26;;;;;;;;;;;15.40;99.90;;;;;;5012501;28;20283;-78
2022/07/18 04:05:57;;;;;;;;;;;15.40;99.90;;;;;;5023569;28;19929;-78
2022/07/18 04:08:23;;;;;;;;;;;15.40;99.90;;;;;;5010528;28;20331;-79
2022/07/18 04:10:49;;;;;;;;;;;15.50;99.90;;;;;;5019101;28;19926;-79
2022/07/18 04:13:16;;;;;;;;;;;15.50;99.90;;;;;;5017625;28;20042;-79
2022/07/18 04:18:46;;;;;;;;;;;15.50;99.90;;;;;;5013467;28;20207;-81
2022/07/18 04:21:12;;;;;;;;;;;15.50;99.90;;;;;;5020419;28;19925;-81
2022/07/18 04:23:38;;;;;;;;;;;15.60;99.90;;;;;;5012756;28;19994;-80
2022/07/18 04:26:04;;;;;;;;;;;15.60;99.90;;;;;;5026100;28;19944;-78
2022/07/18 04:28:30;;;;;;;;;;;15.60;99.90;;;;;;5023669;28;20398;-81
2022/07/18 04:30:56;;;;;;;;;;;15.60;99.90;;;;;;5030998;28;19925;-83
2022/07/18 04:33:22;;;;;;;;;;;15.60;99.90;;;;;;5011930;28;19964;-81
2022/07/18 04:35:48;;;;;;;;;;;15.60;99.90;;;;;;5022618;28;19925;-80
2022/07/18 04:38:18;;;;;;;;;;;15.70;99.90;;;;;;5027431;28;19925;-80
2022/07/18 04:40:44;;;;;;;;;;;15.70;99.90;;;;;;5018193;28;19971;-87
2022/07/18 04:43:10;;;;;;;;;;;15.80;99.90;;;;;;5008373;28;19937;-78
2022/07/18 04:46:09;;;;;;;;;;;15.80;99.90;;;;;;5005680;28;19925;-80
2022/07/18 04:48:51;;;;;;;;;;;15.80;99.90;;;;;;5018678;28;19976;-79
2022/07/18 04:51:17;;;;;;;;;;;15.90;99.90;;;;;;4987330;28;19940;-81
2022/07/18 04:53:42;;;;;;;;;;;15.90;99.90;;;;;;4985162;28;19936;-79
2022/07/18 04:56:11;;;;;;;;;;;16.00;99.90;;;;;;5027138;28;19933;-79
2022/07/18 04:58:37;;;;;;;;;;;16.00;99.90;;;;;;5062415;28;19964;-81
2022/07/18 05:01:03;;;;;;;;;;;16.00;99.90;;;;;;5028326;28;19928;-78
2022/07/18 05:03:28;;;;;;;;;;;16.00;99.90;;;;;;5028934;28;19947;-79
2022/07/18 05:05:57;;;;;;;;;;;16.00;99.90;;;;;;5028242;28;19929;-79
2022/07/18 05:08:28;;;;;;;;;;;16.10;99.90;;;;;;5029117;28;19932;-77
2022/07/18 05:11:19;;;;;;;;;;;16.10;99.90;;;;;;5043765;28;19928;-79
2022/07/18 05:13:50;;;;;;;;;;;16.20;99.90;;;;;;5040606;28;19931;-80
2022/07/18 05:16:19;;;;;;;;;;;16.20;99.90;;;;;;5042672;28;19937;-80
2022/07/18 05:19:00;;;;;;;;;;;15.70;99.90;;;;;;5043022;28;19980;-80
2022/07/18 05:21:35;;;;;;;;;;;16.30;99.90;;;;;;5023410;28;19933;-81
2022/07/18 05:24:00;;;;;;;;;;;16.40;99.90;;;;;;5026593;28;19929;-81
2022/07/18 05:26:31;;;;;;;;;;;16.40;99.90;;;;;;4998741;28;20039;-81
2022/07/18 05:28:57;;;;;;;;;;;16.50;99.90;;;;;;5025162;28;20051;-80
2022/07/18 05:31:24;;;;;;;;;;;16.50;99.90;;;;;;5027707;28;19925;-80
2022/07/18 05:33:50;;;;;;;;;;;16.70;99.90;;;;;;5008093;28;19929;-82
2022/07/18 05:36:36;;;;;;;;;;;16.60;99.90;;;;;;5005326;28;20131;-80
2022/07/18 05:39:04;;;;;;;;;;;16.70;99.90;;;;;;5024388;28;20465;-80
2022/07/18 05:41:29;;;;;;;;;;;16.70;99.90;;;;;;5012027;28;19940;-80
2022/07/18 05:44:10;;;;;;;;;;;16.80;99.90;;;;;;5025681;28;19929;-85
2022/07/18 05:46:39;;;;;;;;;;;16.80;99.90;;;;;;5044025;28;19925;-80
2022/07/18 05:49:26;;;;;;;;;;;16.80;99.90;;;;;;5037276;28;20032;-85
2022/07/18 05:51:52;;;;;;;;;;;16.90;99.90;;;;;;5020043;28;19932;-79
2022/07/18 05:54:51;;;;;;;;;;;16.90;99.90;;;;;;5003271;28;19925;-81
2022/07/18 06:00:41;;;;;;;;;;;17.00;99.90;;;;;;4999699;28;19940;-83
2022/07/18 06:03:22;;;;;;;;;;;17.10;99.90;;;;;;4979455;28;19926;-84
2022/07/18 06:06:18;;;;;;;;;;;16.70;99.90;;;;;;4989795;28;20120;-81
2022/07/18 06:08:47;;;;;;;;;;;17.10;99.90;;;;;;4998997;28;19937;-82
2022/07/18 06:11:13;;;;;;;;;;;17.30;99.90;;;;;;5009881;28;19936;-79
2022/07/18 06:13:40;;;;;;;;;;;17.40;99.90;;;;;;5021582;28;19933;-79
2022/07/18 06:16:23;;;;;;;;;;;17.50;99.90;;;;;;5040122;28;19929;-81
2022/07/18 06:22:43;;;;;;;;;;;17.70;99.90;;;;;;4983926;28;19930;-79
2022/07/18 06:55:18;;;;;;;;;;;20.70;99.90;;;;;;5227916;22;19939;-85
2022/07/18 06:57:44;;;;;;;;;;;21.20;99.90;;;;;;5008330;28;19937;-82
2022/07/18 07:00:12;;;;;;;;;;;20.60;99.90;;;;;;5007648;28;19932;-80
2022/07/18 07:02:45;;;;;;;;;;;20.80;99.90;;;;;;5008730;28;20015;-83
2022/07/18 07:05:12;;;;;;;;;;;20.90;99.90;;;;;;5039147;22;19952;-83
2022/07/18 07:07:42;;;;;;;;;;;21.20;99.90;;;;;;5045748;28;19928;-84
2022/07/18 07:10:15;;;;;;;;;;;22.90;99.90;;;;;;5032468;28;19920;-84
2022/07/18 07:12:45;;;;;;;;;;;22.90;99.90;;;;;;5026396;28;19940;-81
2022/07/18 07:15:15;;;;;;;;;;;23.20;99.90;;;;;;5045625;28;20022;-81
2022/07/18 07:17:41;;;;;;;;;;;23.20;99.90;;;;;;5047145;28;19931;-83
2022/07/18 07:20:19;;;;;;;;;;;23.60;99.90;;;;;;5038074;28;20412;-83
2022/07/18 07:23:08;;;;;;;;;;;24.30;99.90;;;;;;5037115;28;19935;-83
2022/07/18 07:25:42;;;;;;;;;;;24.60;96.40;;;;;;5041355;28;19932;-80
2022/07/18 07:28:11;;;;;;;;;;;25.50;93.90;;;;;;5028439;28;19924;-83
2022/07/18 07:30:38;;;;;;;;;;;25.80;91.70;;;;;;5031072;28;20484;-81
2022/07/18 07:33:20;;;;;;;;;;;26.30;89.90;;;;;;5059961;28;19928;-83
2022/07/18 07:35:55;;;;;;;;;;;26.80;85.90;;;;;;5026896;28;19943;-85
2022/07/18 07:38:39;;;;;;;;;;;27.10;77.50;;;;;;5064525;22;19927;-79
2022/07/18 07:41:06;;;;;;;;;;;27.50;74.50;;;;;;5001489;28;19929;-80
2022/07/18 07:43:32;;;;;;;;;;;27.60;72.90;;;;;;5004374;28;20008;-79
2022/07/18 07:45:58;;;;;;;;;;;27.40;72.20;;;;;;4984440;28;20032;-78
2022/07/18 07:48:23;;;;;;;;;;;27.50;73.60;;;;;;5016551;28;20168;-78
2022/07/18 07:50:50;;;;;;;;;;;27.50;74.60;;;;;;5002581;28;20483;-78
2022/07/18 07:53:16;;;;;;;;;;;27.30;75.50;;;;;;4986342;28;19937;-81
2022/07/18 07:55:42;;;;;;;;;;;27.00;74.30;;;;;;5001969;28;20488;-78
2022/07/18 07:58:09;;;;;;;;;;;26.50;71.70;;;;;;5021516;28;19930;-81
2022/07/18 08:00:35;;;;;;;;;;;26.50;75.30;;;;;;5006270;28;19925;-79
2022/07/18 08:03:02;;;;;;;;;;;27.10;73.60;;;;;;5004527;28;20020;-79
2022/07/18 08:05:29;;;;;;;;;;;27.60;73.60;;;;;;4998206;28;19925;-80
2022/07/18 08:07:55;;;;;;;;;;;27.70;71.60;;;;;;4998505;28;20866;-78
2022/07/18 08:10:21;;;;;;;;;;;27.40;70.70;;;;;;5003861;28;19948;-79
2022/07/18 08:12:47;;;;;;;;;;;27.10;73.20;;;;;;4984859;28;19936;-82
2022/07/18 08:15:13;;;;;;;;;;;26.90;73.40;;;;;;4969399;28;20284;-80
2022/07/18 08:17:39;;;;;;;;;;;26.60;73.30;;;;;;4986262;28;19932;-80
2022/07/18 08:20:05;;;;;;;;;;;26.20;75.90;;;;;;5001268;28;20064;-82
2022/07/18 08:22:31;;;;;;;;;;;25.90;76.30;;;;;;4997638;28;19933;-79
2022/07/18 08:24:56;;;;;;;;;;;25.80;75.80;;;;;;4999886;28;20036;-82
2022/07/18 08:27:22;;;;;;;;;;;26.20;78.00;;;;;;5000523;28;19925;-81
2022/07/18 08:29:48;;;;;;;;;;;26.60;74.40;;;;;;5003503;28;20015;-80
2022/07/18 08:32:14;;;;;;;;;;;27.10;75.90;;;;;;5007301;28;19926;-79
2022/07/18 08:34:39;;;;;;;;;;;27.30;75.50;;;;;;4989018;28;20368;-80
2022/07/18 08:37:05;;;;;;;;;;;27.70;76.60;;;;;;5001578;28;20292;-79
2022/07/18 08:39:31;;;;;;;;;;;27.90;75.80;;;;;;5019384;28;19925;-82
2022/07/18 08:41:58;;;;;;;;;;;27.80;74.00;;;;;;5034299;28;20046;-81
2022/07/18 08:44:24;;;;;;;;;;;27.50;73.90;;;;;;5007692;28;19975;-79
2022/07/18 08:46:50;;;;;;;;;;;27.20;75.80;;;;;;4990869;28;20027;-80
2022/07/18 08:49:16;;;;;;;;;;;26.90;73.00;;;;;;5013760;28;20250;-83
2022/07/18 08:51:42;;;;;;;;;;;26.60;73.10;;;;;;5009471;28;20023;-79
2022/07/18 08:54:09;;;;;;;;;;;26.30;75.00;;;;;;5021207;28;19988;-80
2022/07/18 08:56:34;;;;;;;;;;;26.00;73.30;;;;;;5010022;28;19971;-80
2022/07/18 08:59:02;;;;;;;;;;;25.80;74.50;;;;;;5021117;28;20006;-82
2022/07/18 09:01:28;;;;;;;;;;;25.60;76.50;;;;;;5026938;28;19925;-82
2022/07/18 09:06:45;;;;;;;;;;;25.30;78.20;;;;;;5021202;28;19925;-83
2022/07/18 09:09:12;;;;;;;;;;;25.10;79.50;;;;;;5013317;28;20103;-82
2022/07/18 09:11:48;;;;;;;;;;;25.10;80.80;;;;;;4997211;28;19961;-82
2022/07/18 09:14:34;;;;;;;;;;;25.00;81.30;;;;;;5012021;28;19921;-83
2022/07/18 09:17:05;;;;;;;;;;;25.00;81.90;;;;;;5030345;28;20352;-86
2022/07/18 09:19:31;;;;;;;;;;;25.00;82.70;;;;;;5014039;28;20376;-83
2022/07/18 09:22:19;;;;;;;;;;;25.00;81.80;;;;;;5025429;28;19939;-86
2022/07/18 09:25:08;;;;;;;;;;;25.00;82.70;;;;;;5022580;28;19929;-83
2022/07/18 09:27:36;;;;;;;;;;;25.00;79.60;;;;;;5002588;28;19979;-83
2022/07/18 09:30:20;;;;;;;;;;;25.10;81.70;;;;;;5010508;28;20028;-83
2022/07/18 09:32:51;;;;;;;;;;;25.20;80.40;;;;;;5025919;28;20006;-80
2022/07/18 09:35:21;;;;;;;;;;;25.20;80.80;;;;;;5022831;28;19956;-80
2022/07/18 09:37:59;;;;;;;;;;;25.30;80.20;;;;;;5009284;28;20027;-80
2022/07/18 09:40:45;;;;;;;;;;;25.40;80.30;;;;;;5009782;28;19925;-80
2022/07/18 09:43:12;;;;;;;;;;;25.50;82.10;;;;;;5025182;28;19936;-80
2022/07/18 09:45:39;;;;;;;;;;;25.60;82.10;;;;;;5025849;28;20262;-80
2022/07/18 09:48:06;;;;;;;;;;;25.80;82.90;;;;;;5001119;28;20471;-82
2022/07/18 09:50:33;;;;;;;;;;;25.90;81.50;;;;;;5014600;28;19921;-86
2022/07/18 09:53:01;;;;;;;;;;;26.00;81.80;;;;;;5040396;28;19936;-81
2022/07/18 09:55:27;;;;;;;;;;;26.10;78.90;;;;;;5009064;28;19970;-82
2022/07/18 09:58:01;;;;;;;;;;;26.10;79.50;;;;;;4993147;28;20430;-82
2022/07/18 10:00:28;;;;;;;;;;;26.30;80.80;;;;;;5023633;28;19955;-80
2022/07/18 10:02:54;;;;;;;;;;;26.50;81.90;;;;;;5030289;28;20367;-83
2022/07/18 10:05:20;;;;;;;;;;;26.60;80.20;;;;;;5008335;28;20044;-80
2022/07/18 10:07:46;;;;;;;;;;;26.70;78.70;;;;;;5021901;28;20587;-82
2022/07/18 10:10:14;;;;;;;;;;;26.90;76.20;;;;;;5026183;28;19925;-82
2022/07/18 10:12:40;;;;;;;;;;;27.00;75.80;;;;;;5010474;28;20260;-81
2022/07/18 10:15:06;;;;;;;;;;;27.10;75.00;;;;;;5026011;28;20032;-82
2022/07/18 10:17:32;;;;;;;;;;;27.20;77.40;;;;;;5024815;28;19933;-82
2022/07/18 10:20:06;;;;;;;;;;;27.30;75.80;;;;;;5023723;28;19925;-81
2022/07/18 10:22:42;;;;;;;;;;;27.40;73.70;;;;;;5007566;28;20008;-81
2022/07/18 10:25:08;;;;;;;;;;;27.60;75.50;;;;;;5023948;28;19925;-80
2022/07/18 10:27:48;;;;;;;;;;;27.80;74.10;;;;;;5008317;28;19925;-81
2022/07/18 10:30:14;;;;;;;;;;;27.90;71.40;;;;;;5022178;28;19929;-83
2022/07/18 10:32:40;;;;;;;;;;;28.10;71.60;;;;;;5017835;28;20438;-81
2022/07/18 10:35:07;;;;;;;;;;;28.20;72.40;;;;;;5016952;28;19940;-83
2022/07/18 10:37:34;;;;;;;;;;;28.50;72.30;;;;;;5023951;28;19998;-83
2022/07/18 10:40:19;;;;;;;;;;;28.60;71.70;;;;;;5016690;28;19980;-79
2022/07/18 10:42:45;;;;;;;;;;;28.70;69.60;;;;;;5017420;28;19934;-78
2022/07/18 10:45:40;;;;;;;;;;;28.80;69.00;;;;;;5021838;28;19929;-77
2022/07/18 10:48:24;;;;;;;;;;;28.90;67.70;;;;;;5003018;28;19930;-78
2022/07/18 10:51:06;;;;;;;;;;;29.10;70.10;;;;;;5021655;28;19929;-77
2022/07/18 10:53:51;;;;;;;;;;;29.10;66.60;;;;;;5025403;28;19925;-78
2022/07/18 10:56:17;;;;;;;;;;;29.40;69.60;;;;;;5023864;28;19929;-78
2022/07/18 10:58:44;;;;;;;;;;;29.60;67.70;;;;;;5042732;28;20452;-77
2022/07/18 11:01:15;;;;;;;;;;;29.80;66.20;;;;;;5024593;28;20367;-81
2022/07/18 11:03:41;;;;;;;;;;;30.00;69.50;;;;;;5022594;28;19932;-78
2022/07/18 11:06:07;;;;;;;;;;;29.90;65.30;;;;;;5020905;28;19940;-79
2022/07/18 11:08:34;;;;;;;;;;;29.90;64.80;;;;;;5021094;28;19933;-79
2022/07/18 11:11:04;;;;;;;;;;;30.10;68.80;;;;;;5025330;28;20375;-81
2022/07/18 11:13:37;;;;;;;;;;;30.10;65.00;;;;;;5023858;28;20019;-79
2022/07/18 11:16:06;;;;;;;;;;;30.00;61.30;;;;;;5036082;28;20411;-79
2022/07/18 11:18:33;;;;;;;;;;;30.00;63.70;;;;;;5019234;28;19930;-78
2022/07/18 11:20:59;;;;;;;;;;;30.00;62.60;;;;;;5006046;28;19925;-79
2022/07/18 11:23:26;;;;;;;;;;;30.20;61.40;;;;;;5040475;28;19998;-78
2022/07/18 11:25:54;;;;;;;;;;;30.30;61.00;;;;;;5018519;28;20023;-79
2022/07/18 11:28:20;;;;;;;;;;;30.50;62.80;;;;;;5007993;28;19933;-78
2022/07/18 11:30:58;;;;;;;;;;;30.60;56.80;;;;;;5018664;28;20018;-79
2022/07/18 11:33:25;;;;;;;;;;;30.70;59.10;;;;;;5019042;28;20020;-79
2022/07/18 11:35:51;;;;;;;;;;;30.70;60.20;;;;;;5007555;28;19931;-78
2022/07/18 11:38:18;;;;;;;;;;;30.70;57.80;;;;;;5019515;28;20560;-78
2022/07/18 11:40:48;;;;;;;;;;;30.60;60.70;;;;;;5023443;28;19933;-80
2022/07/18 11:43:24;;;;;;;;;;;30.60;58.30;;;;;;5001864;28;19925;-81
2022/07/18 11:46:09;;;;;;;;;;;30.30;60.70;;;;;;4994545;28;19972;-81
2022/07/18 11:48:36;;;;;;;;;;;30.20;60.90;;;;;;4995827;28;19975;-80
2022/07/18 11:51:08;;;;;;;;;;;30.10;59.60;;;;;;4984700;28;21092;-78
2022/07/18 11:53:33;;;;;;;;;;;30.10;57.80;;;;;;5001792;28;19926;-78
2022/07/18 11:56:03;;;;;;;;;;;30.20;59.20;;;;;;5001495;28;20058;-78
2022/07/18 11:58:34;;;;;;;;;;;30.10;58.80;;;;;;5001850;28;20400;-79
2022/07/18 12:01:00;;;;;;;;;;;30.10;58.50;;;;;;5005138;28;19949;-83
2022/07/18 12:03:27;;;;;;;;;;;30.10;58.20;;;;;;4987311;28;20193;-82
2022/07/18 12:05:53;;;;;;;;;;;30.00;58.30;;;;;;5000970;28;20256;-85
2022/07/18 12:08:33;;;;;;;;;;;30.00;59.60;;;;;;4988921;28;19933;-80
2022/07/18 12:11:06;;;;;;;;;;;29.80;58.20;;;;;;5007729;28;19952;-82
2022/07/18 12:13:39;;;;;;;;;;;29.70;57.80;;;;;;5008890;28;20470;-81
2022/07/18 12:16:06;;;;;;;;;;;29.70;56.10;;;;;;5007267;28;19937;-89
2022/07/18 12:18:32;;;;;;;;;;;29.80;56.20;;;;;;5007759;28;19926;-81
2022/07/18 12:21:10;;;;;;;;;;;29.70;56.10;;;;;;4992537;28;20392;-79
2022/07/18 12:23:35;;;;;;;;;;;29.70;59.20;;;;;;4991939;28;19933;-84
2022/07/18 12:26:01;;;;;;;;;;;29.60;59.20;;;;;;5008929;28;20353;-79
2022/07/18 12:28:28;;;;;;;;;;;29.50;56.80;;;;;;5008610;28;19925;-80
2022/07/18 12:30:54;;;;;;;;;;;29.40;56.50;;;;;;5003657;28;19926;-81
2022/07/18 12:33:20;;;;;;;;;;;29.40;57.10;;;;;;5006207;28;19952;-79
2022/07/18 12:35:53;;;;;;;;;;;29.50;60.00;;;;;;5000832;28;20424;-82
2022/07/18 12:38:20;;;;;;;;;;;29.50;57.60;;;;;;5005084;28;19979;-80
2022/07/18 12:41:01;;;;;;;;;;;29.50;58.30;;;;;;5013908;28;19929;-84
2022/07/18 12:43:35;;;;;;;;;;;29.30;60.40;;;;;;5006933;28;20502;-81
2022/07/18 12:46:05;;;;;;;;;;;29.10;57.30;;;;;;5026775;28;19925;-80
2022/07/18 12:48:32;;;;;;;;;;;29.10;58.90;;;;;;5024711;28;19971;-81
2022/07/18 12:51:00;;;;;;;;;;;28.90;59.00;;;;;;5011325;28;19925;-77
2022/07/18 12:53:26;;;;;;;;;;;28.80;57.00;;;;;;5040572;28;19973;-86
2022/07/18 12:55:51;;;;;;;;;;;28.80;55.70;;;;;;5023528;28;19925;-85
2022/07/18 12:58:17;;;;;;;;;;;28.80;56.90;;;;;;4987484;28;20352;-80
2022/07/18 13:00:44;;;;;;;;;;;28.80;57.60;;;;;;5028495;28;19926;-78
2022/07/18 13:03:10;;;;;;;;;;;28.80;58.10;;;;;;5019514;28;19929;-81
2022/07/18 13:05:36;;;;;;;;;;;28.80;58.20;;;;;;5022902;28;19983;-81
2022/07/18 13:08:02;;;;;;;;;;;28.80;58.00;;;;;;5005477;28;19926;-81
2022/07/18 13:10:28;;;;;;;;;;;28.80;57.30;;;;;;5026470;28;19965;-81
2022/07/18 13:12:54;;;;;;;;;;;28.80;58.50;;;;;;5024401;28;19937;-81
2022/07/18 13:15:20;;;;;;;;;;;28.80;58.10;;;;;;5025452;28;19924;-80
2022/07/18 13:17:48;;;;;;;;;;;28.70;59.00;;;;;;5011862;28;19936;-80
2022/07/18 13:20:15;;;;;;;;;;;28.70;58.20;;;;;;4999527;28;20253;-79
2022/07/18 13:22:42;;;;;;;;;;;28.60;59.10;;;;;;5025597;28;19952;-82
2022/07/18 13:25:08;;;;;;;;;;;28.60;57.90;;;;;;5023739;28;20014;-83
2022/07/18 13:27:35;;;;;;;;;;;28.60;60.70;;;;;;5024873;28;19929;-82
2022/07/18 13:30:01;;;;;;;;;;;28.50;57.10;;;;;;5010519;28;19929;-86
2022/07/18 13:32:30;;;;;;;;;;;28.50;57.10;;;;;;5021479;28;19929;-84
2022/07/18 13:34:56;;;;;;;;;;;28.50;58.40;;;;;;5002487;28;19933;-82
2022/07/18 13:37:22;;;;;;;;;;;28.50;56.90;;;;;;5003500;28;19932;-83
2022/07/18 13:39:47;;;;;;;;;;;28.50;57.80;;;;;;5009237;28;20008;-81
2022/07/18 13:42:14;;;;;;;;;;;28.40;57.20;;;;;;5006010;28;20020;-80
2022/07/18 13:44:39;;;;;;;;;;;28.40;56.20;;;;;;5026230;28;20391;-81
2022/07/18 13:47:05;;;;;;;;;;;28.30;55.60;;;;;;5025570;28;20028;-85
2022/07/18 13:49:31;;;;;;;;;;;28.40;55.80;;;;;;5020157;28;20018;-82
2022/07/18 13:51:57;;;;;;;;;;;28.30;56.30;;;;;;5025194;28;19961;-83
2022/07/18 13:54:23;;;;;;;;;;;28.20;54.70;;;;;;5026512;28;19925;-80
2022/07/18 13:56:48;;;;;;;;;;;28.10;55.70;;;;;;5011728;28;20207;-84
2022/07/18 13:59:15;;;;;;;;;;;28.00;56.60;;;;;;5022917;28;19936;-84
2022/07/18 14:01:41;;;;;;;;;;;27.90;56.70;;;;;;5026335;28;19925;-83
2022/07/18 14:04:07;;;;;;;;;;;27.80;58.20;;;;;;5008404;28;19940;-82
2022/07/18 14:06:35;;;;;;;;;;;27.70;58.00;;;;;;5016159;28;19929;-79
2022/07/18 14:09:02;;;;;;;;;;;27.60;58.60;;;;;;5017579;28;19929;-83
2022/07/18 14:11:28;;;;;;;;;;;27.60;59.40;;;;;;5027404;28;19929;-82
2022/07/18 14:13:53;;;;;;;;;;;27.50;60.50;;;;;;5023607;28;19929;-85
2022/07/18 14:16:19;;;;;;;;;;;27.40;59.60;;;;;;5024387;28;19929;-81
2022/07/18 14:18:45;;;;;;;;;;;27.40;60.90;;;;;;5020427;28;20522;-80
2022/07/18 14:21:11;;;;;;;;;;;27.30;60.60;;;;;;5023745;28;19929;-83
2022/07/18 14:23:37;;;;;;;;;;;27.30;61.10;;;;;;5025445;28;20001;-79
2022/07/18 14:26:03;;;;;;;;;;;27.30;62.00;;;;;;5027460;28;20446;-82
2022/07/18 14:28:28;;;;;;;;;;;27.20;61.10;;;;;;5007777;28;19996;-89
2022/07/18 14:30:54;;;;;;;;;;;27.20;60.50;;;;;;5018395;28;20388;-82
2022/07/18 14:33:20;;;;;;;;;;;27.20;60.80;;;;;;5020549;28;19983;-79
2022/07/18 14:35:46;;;;;;;;;;;27.20;59.80;;;;;;5021761;28;19940;-83
2022/07/18 14:38:12;;;;;;;;;;;27.20;59.80;;;;;;5021346;28;20602;-83
2022/07/18 14:40:38;;;;;;;;;;;27.20;60.10;;;;;;5041938;28;19934;-84
2022/07/18 14:43:04;;;;;;;;;;;27.30;60.20;;;;;;5026935;28;19964;-82
2022/07/18 14:45:30;;;;;;;;;;;27.30;61.70;;;;;;5029003;28;19948;-82
2022/07/18 14:47:56;;;;;;;;;;;27.30;60.70;;;;;;5028230;28;20371;-82
2022/07/18 14:50:22;;;;;;;;;;;27.30;60.20;;;;;;5028323;28;19931;-82
2022/07/18 14:52:48;;;;;;;;;;;27.30;61.00;;;;;;5022708;28;19937;-79
2022/07/18 14:55:14;;;;;;;;;;;27.30;60.20;;;;;;5013388;28;19925;-81
2022/07/18 14:57:41;;;;;;;;;;;27.30;60.40;;;;;;5043630;28;19929;-79
2022/07/18 15:00:08;;;;;;;;;;;27.40;60.00;;;;;;5041794;28;19964;-81
2022/07/18 15:02:35;;;;;;;;;;;27.40;61.00;;;;;;5043046;28;19982;-81
2022/07/18 15:05:02;;;;;;;;;;;27.40;60.80;;;;;;5027634;28;20028;-80
2022/07/18 15:07:27;;;;;;;;;;;27.40;61.60;;;;;;5022672;28;19925;-82
2022/07/18 15:09:53;;;;;;;;;;;27.40;62.40;;;;;;5022150;28;19983;-80
2022/07/18 15:12:19;;;;;;;;;;;27.40;62.50;;;;;;5025895;28;19979;-81
2022/07/18 15:14:45;;;;;;;;;;;27.40;60.90;;;;;;5003288;28;20019;-80
2022/07/18 15:17:10;;;;;;;;;;;27.40;62.70;;;;;;5023600;28;19925;-81
2022/07/18 15:19:38;;;;;;;;;;;27.40;61.90;;;;;;5023206;28;19929;-79
2022/07/18 15:22:07;;;;;;;;;;;27.50;62.30;;;;;;5009270;28;20265;-80
2022/07/18 15:24:33;;;;;;;;;;;27.50;60.10;;;;;;5026931;28;19929;-85
2022/07/18 15:26:59;;;;;;;;;;;27.60;61.90;;;;;;5027657;28;20667;-81
2022/07/18 15:29:25;;;;;;;;;;;27.60;62.20;;;;;;5007041;28;20310;-79
2022/07/18 15:31:51;;;;;;;;;;;27.60;59.90;;;;;;5028173;28;19931;-82
2022/07/18 15:34:17;;;;;;;;;;;27.60;59.30;;;;;;5005140;28;20012;-83
2022/07/18 15:36:43;;;;;;;;;;;27.70;61.00;;;;;;5007882;28;19932;-79
2022/07/18 15:39:08;;;;;;;;;;;27.70;61.30;;;;;;5030127;28;20387;-80